createdAt,value
2017-09-08T00:01:58.437Z,5.22
2017-09-08T00:04:28.159Z,4.75
2017-09-08T00:06:57.885Z,4.85
2017-09-08T00:09:27.642Z,6.03
2017-09-08T00:11:57.411Z,5.32
2017-09-08T00:14:26.994Z,5.85
2017-09-08T00:16:56.810Z,5.40
2017-09-08T00:19:26.528Z,4.70
2017-09-08T00:21:56.261Z,5.05
2017-09-08T00:24:26.029Z,5.07
2017-09-08T00:26:55.755Z,5.55
2017-09-08T00:29:25.669Z,6.53
2017-09-08T00:31:55.401Z,5.85
2017-09-08T00:34:25.149Z,5.35
2017-09-08T00:36:54.921Z,7.00
2017-09-08T00:39:24.654Z,6.57
2017-09-08T00:41:54.384Z,5.55
2017-09-08T00:44:24.850Z,5.45
2017-09-08T00:46:54.592Z,5.55
2017-09-08T00:49:24.404Z,5.97
2017-09-08T00:51:54.121Z,5.85
2017-09-08T00:54:23.844Z,5.97
2017-09-08T00:56:53.570Z,6.40
2017-09-08T00:59:23.289Z,5.22
2017-09-08T01:01:53.034Z,5.72
2017-09-08T01:04:22.760Z,5.28
2017-09-08T01:06:52.472Z,5.25
2017-09-08T01:09:22.264Z,5.65
2017-09-08T01:11:52.796Z,5.10
2017-09-08T01:14:22.540Z,5.53
2017-09-08T01:16:52.296Z,6.15
2017-09-08T01:19:21.828Z,5.30
2017-09-08T01:21:51.553Z,5.97
2017-09-08T01:24:21.282Z,5.85
2017-09-08T01:26:50.999Z,5.70
2017-09-08T01:29:20.716Z,5.53
2017-09-08T01:31:50.260Z,5.80
2017-09-08T01:34:19.982Z,6.10
2017-09-08T01:36:49.709Z,7.03
2017-09-08T01:39:19.457Z,6.45
2017-09-08T01:41:49.022Z,6.40
2017-09-08T01:44:18.771Z,5.40
2017-09-08T01:46:48.524Z,6.18
2017-09-08T01:49:18.261Z,6.20
2017-09-08T01:51:47.987Z,6.68
2017-09-08T01:54:17.707Z,5.82
2017-09-08T01:56:47.411Z,6.35
2017-09-08T01:59:17.143Z,6.55
2017-09-08T02:01:46.870Z,6.72
2017-09-08T02:04:16.614Z,6.30
2017-09-08T02:06:46.177Z,6.18
2017-09-08T02:09:15.896Z,6.00
2017-09-08T02:11:45.639Z,6.37
2017-09-08T02:14:15.370Z,6.00
2017-09-08T02:16:45.112Z,6.22
2017-09-08T02:19:14.852Z,6.50
2017-09-08T02:21:49.730Z,6.97
2017-09-08T02:24:19.514Z,6.70
2017-09-08T02:26:49.225Z,6.62
2017-09-08T02:29:18.953Z,7.75
2017-09-08T02:31:48.677Z,6.87
2017-09-08T02:34:18.397Z,5.95
2017-09-08T02:36:48.210Z,5.95
2017-09-08T02:39:17.940Z,6.80
2017-09-08T02:41:47.669Z,5.97
2017-09-08T02:44:17.409Z,6.18
2017-09-08T02:46:47.132Z,7.65
2017-09-08T02:49:16.864Z,7.12
2017-09-08T02:51:46.589Z,6.75
2017-09-08T02:54:16.349Z,7.75
2017-09-08T02:56:46.077Z,7.35
2017-09-08T02:59:15.624Z,7.35
2017-09-08T03:01:45.349Z,6.95
2017-09-08T03:04:15.081Z,6.15
2017-09-08T03:06:44.813Z,7.18
2017-09-08T03:09:14.568Z,7.05
2017-09-08T03:11:44.300Z,6.65
2017-09-08T03:14:14.041Z,6.50
2017-09-08T03:16:43.776Z,6.50
2017-09-08T03:19:13.513Z,6.28
2017-09-08T03:21:43.361Z,6.75
2017-09-08T03:24:13.087Z,7.15
2017-09-08T03:26:42.798Z,7.10
2017-09-08T03:29:12.550Z,7.03
2017-09-08T03:31:42.342Z,6.53
2017-09-08T03:34:12.080Z,6.97
2017-09-08T03:36:41.929Z,7.30
2017-09-08T03:39:11.644Z,7.10
2017-09-08T03:41:41.390Z,7.40
2017-09-08T03:44:11.130Z,7.97
2017-09-08T03:46:40.885Z,7.95
2017-09-08T03:49:10.624Z,8.25
2017-09-08T03:51:40.468Z,7.03
2017-09-08T03:54:10.199Z,8.02
2017-09-08T03:56:40.055Z,6.53
2017-09-08T03:59:09.761Z,7.05
2017-09-08T04:01:39.549Z,7.90
2017-09-08T04:04:09.063Z,8.32
2017-09-08T04:06:38.800Z,7.62
2017-09-08T04:09:08.607Z,7.28
2017-09-08T04:11:38.352Z,7.22
2017-09-08T04:14:08.098Z,7.37
2017-09-08T04:16:37.637Z,7.30
2017-09-08T04:19:07.389Z,6.40
2017-09-08T04:21:37.148Z,6.55
2017-09-08T04:24:06.900Z,7.47
2017-09-08T04:26:36.658Z,6.82
2017-09-08T04:29:06.628Z,5.93
2017-09-08T04:31:36.332Z,7.50
2017-09-08T04:34:06.083Z,6.90
2017-09-08T04:36:35.903Z,7.53
2017-09-08T04:39:05.034Z,8.73
2017-09-08T04:41:34.961Z,8.00
2017-09-08T04:44:04.688Z,8.00
2017-09-08T04:46:34.438Z,9.57
2017-09-08T04:49:04.158Z,7.10
2017-09-08T04:51:33.917Z,7.80
2017-09-08T04:54:04.069Z,7.57
2017-09-08T04:56:33.913Z,7.20
2017-09-08T04:59:03.765Z,6.93
2017-09-08T05:01:33.517Z,6.00
2017-09-08T05:04:03.241Z,6.72
2017-09-08T05:06:33.022Z,7.95
2017-09-08T05:09:02.665Z,6.95
2017-09-08T05:11:32.367Z,8.15
2017-09-08T05:14:01.925Z,7.85
2017-09-08T05:16:31.884Z,7.47
2017-09-08T05:19:01.597Z,7.37
2017-09-08T05:21:31.337Z,7.40
2017-09-08T05:24:01.062Z,8.20
2017-09-08T05:26:30.780Z,7.55
2017-09-08T05:29:00.536Z,8.75
2017-09-08T05:31:30.259Z,7.45
2017-09-08T05:33:59.994Z,9.52
2017-09-08T05:36:29.727Z,7.90
2017-09-08T05:38:59.454Z,9.20
2017-09-08T05:41:29.188Z,8.38
2017-09-08T05:43:58.900Z,7.50
2017-09-08T05:46:28.648Z,7.93
2017-09-08T05:48:58.396Z,7.57
2017-09-08T05:51:28.134Z,7.43
2017-09-08T05:53:57.685Z,8.10
2017-09-08T05:56:27.422Z,8.05
2017-09-08T05:58:57.144Z,8.63
2017-09-08T06:01:26.918Z,9.38
2017-09-08T06:03:56.668Z,8.52
2017-09-08T06:06:26.619Z,7.87
2017-09-08T06:08:56.370Z,10.10
2017-09-08T06:11:26.164Z,9.60
2017-09-08T06:13:55.897Z,12.37
2017-09-08T06:16:25.660Z,13.88
2017-09-08T06:18:56.227Z,12.82
2017-09-08T06:21:25.972Z,13.73
2017-09-08T06:23:55.741Z,13.25
2017-09-08T06:26:25.485Z,12.70
2017-09-08T06:28:55.234Z,12.25
2017-09-08T06:31:24.980Z,11.75
2017-09-08T06:33:54.742Z,12.27
2017-09-08T06:36:24.472Z,11.75
2017-09-08T06:38:54.263Z,12.32
2017-09-08T06:41:24.000Z,12.23
2017-09-08T06:43:53.733Z,13.40
2017-09-08T06:46:24.240Z,13.25
2017-09-08T06:48:53.984Z,13.90
2017-09-08T06:51:23.804Z,15.05
2017-09-08T06:53:53.549Z,17.70
2017-09-08T06:56:23.318Z,22.23
2017-09-08T06:58:53.073Z,14.10
2017-09-08T07:01:22.882Z,16.27
2017-09-08T07:03:52.616Z,14.50
2017-09-08T07:06:22.409Z,14.32
2017-09-08T07:08:52.129Z,15.30
2017-09-08T07:11:21.864Z,16.15
2017-09-08T07:13:52.261Z,15.07
2017-09-08T07:16:22.004Z,15.57
2017-09-08T07:18:51.748Z,17.08
2017-09-08T07:21:21.499Z,14.95
2017-09-08T07:23:51.235Z,16.27
2017-09-08T07:26:20.980Z,15.52
2017-09-08T07:28:50.741Z,15.40
2017-09-08T07:31:20.480Z,14.60
2017-09-08T07:33:50.083Z,14.05
2017-09-08T07:36:19.819Z,13.23
2017-09-08T07:38:49.559Z,14.82
2017-09-08T07:41:19.306Z,13.32
2017-09-08T07:43:49.068Z,11.52
2017-09-08T07:46:18.621Z,12.57
2017-09-08T07:48:48.885Z,11.73
2017-09-08T07:51:18.449Z,10.87
2017-09-08T07:53:47.937Z,11.50
2017-09-08T07:56:17.385Z,11.97
2017-09-08T07:58:46.847Z,11.63
2017-09-08T08:01:16.298Z,11.80
2017-09-08T08:03:45.769Z,11.57
2017-09-08T08:06:15.287Z,12.00
2017-09-08T08:08:44.825Z,11.87
2017-09-08T08:11:14.285Z,10.60
2017-09-08T08:13:43.746Z,11.40
2017-09-08T08:16:13.232Z,11.20
2017-09-08T08:18:42.682Z,10.17
2017-09-08T08:21:12.125Z,11.83
2017-09-08T08:23:41.585Z,9.00
2017-09-08T08:26:11.052Z,10.23
2017-09-08T08:28:40.509Z,9.43
2017-09-08T08:31:09.977Z,9.07
2017-09-08T08:33:39.424Z,7.80
2017-09-08T08:36:08.892Z,10.17
2017-09-08T08:38:38.353Z,9.77
2017-09-08T08:41:07.798Z,9.37
2017-09-08T08:43:37.260Z,9.00
2017-09-08T08:46:06.719Z,9.00
2017-09-08T08:48:36.155Z,9.20
2017-09-08T08:51:05.600Z,8.30
2017-09-08T08:53:35.085Z,8.10
2017-09-08T08:56:04.525Z,8.80
2017-09-08T08:58:33.977Z,8.23
2017-09-08T09:01:03.454Z,7.93
2017-09-08T09:03:32.900Z,6.80
2017-09-08T09:06:02.372Z,7.30
2017-09-08T09:08:31.821Z,6.87
2017-09-08T09:11:01.290Z,6.40
2017-09-08T09:13:30.717Z,6.50
2017-09-08T09:16:00.295Z,7.00
2017-09-08T09:18:29.745Z,5.50
2017-09-08T09:20:59.172Z,5.90
2017-09-08T09:23:28.695Z,4.97
2017-09-08T09:25:58.138Z,4.47
2017-09-08T09:28:27.588Z,4.93
2017-09-08T09:30:57.035Z,4.80
2017-09-08T09:33:26.498Z,4.80
2017-09-08T09:35:55.933Z,3.60
2017-09-08T09:38:25.377Z,3.40
2017-09-08T09:40:54.842Z,3.80
2017-09-08T09:43:24.299Z,4.53
2017-09-08T09:45:53.830Z,4.30
2017-09-08T09:48:23.277Z,4.30
2017-09-08T09:50:52.803Z,4.07
2017-09-08T09:53:22.076Z,4.57
2017-09-08T09:55:51.539Z,3.80
2017-09-08T09:58:20.973Z,3.07
2017-09-08T10:00:50.431Z,3.77
2017-09-08T10:03:19.869Z,3.67
2017-09-08T10:05:49.319Z,4.20
2017-09-08T10:08:18.796Z,3.50
2017-09-08T10:10:48.224Z,2.60
2017-09-08T10:13:17.688Z,2.97
2017-09-08T10:15:47.132Z,2.57
2017-09-08T10:18:16.600Z,3.47
2017-09-08T10:20:46.040Z,2.90
2017-09-08T10:23:15.506Z,3.40
2017-09-08T10:25:44.981Z,3.40
2017-09-08T10:28:14.421Z,3.10
2017-09-08T10:30:43.869Z,2.57
2017-09-08T10:33:13.352Z,2.73
2017-09-08T10:35:42.796Z,2.93
2017-09-08T10:38:12.305Z,2.93
2017-09-08T10:40:41.739Z,3.13
2017-09-08T10:43:11.234Z,3.87
2017-09-08T10:45:40.660Z,2.80
2017-09-08T10:48:10.097Z,3.13
2017-09-08T10:50:43.643Z,2.47
2017-09-08T10:53:12.929Z,2.53
2017-09-08T10:55:42.367Z,2.20
2017-09-08T10:58:11.790Z,2.30
2017-09-08T11:00:41.052Z,2.73
2017-09-08T11:03:10.318Z,2.90
2017-09-08T11:05:39.763Z,2.23
2017-09-08T11:08:09.225Z,2.67
2017-09-08T11:10:38.669Z,2.23
2017-09-08T11:13:08.120Z,2.70
2017-09-08T11:15:37.573Z,2.83
2017-09-08T11:18:06.812Z,3.03
2017-09-08T11:20:36.216Z,3.40
2017-09-08T11:23:05.652Z,3.73
2017-09-08T11:25:35.288Z,3.40
2017-09-08T11:28:04.739Z,2.30
2017-09-08T11:30:34.205Z,2.67
2017-09-08T11:33:08.993Z,2.80
2017-09-08T11:35:43.761Z,4.23
2017-09-08T11:38:13.222Z,3.20
2017-09-08T11:40:42.661Z,2.73
2017-09-08T11:43:12.096Z,3.00
2017-09-08T11:45:41.549Z,3.27
2017-09-08T11:48:11.017Z,3.03
2017-09-08T11:50:40.464Z,3.30
2017-09-08T11:53:09.894Z,3.17
2017-09-08T11:55:39.345Z,2.77
2017-09-08T11:58:08.804Z,2.53
2017-09-08T12:00:38.156Z,2.97
2017-09-08T12:03:07.428Z,3.50
2017-09-08T12:05:36.692Z,3.33
2017-09-08T12:08:06.156Z,3.33
2017-09-08T12:10:35.598Z,3.43
2017-09-08T12:13:05.057Z,2.77
2017-09-08T12:15:34.497Z,3.23
2017-09-08T12:18:03.945Z,3.90
2017-09-08T12:20:33.393Z,4.00
2017-09-08T12:23:02.830Z,4.20
2017-09-08T12:25:32.284Z,3.93
2017-09-08T12:28:01.749Z,3.40
2017-09-08T12:30:31.180Z,3.30
2017-09-08T12:33:00.678Z,3.40
2017-09-08T12:35:30.216Z,3.13
2017-09-08T12:37:59.645Z,3.33
2017-09-08T12:40:29.086Z,3.00
2017-09-08T12:42:58.553Z,3.30
2017-09-08T12:45:28.000Z,3.37
2017-09-08T12:47:57.449Z,3.70
2017-09-08T12:50:26.954Z,3.30
2017-09-08T12:52:56.394Z,3.00
2017-09-08T12:55:25.833Z,3.13
2017-09-08T12:57:55.292Z,2.60
2017-09-08T13:00:24.745Z,3.60
2017-09-08T13:02:54.076Z,3.10
2017-09-08T13:05:23.571Z,3.20
2017-09-08T13:07:53.004Z,2.67
2017-09-08T13:10:22.478Z,3.30
2017-09-08T13:12:51.912Z,2.93
2017-09-08T13:15:21.397Z,3.13
2017-09-08T13:17:50.850Z,3.23
2017-09-08T13:20:20.351Z,3.60
2017-09-08T13:22:49.785Z,2.70
2017-09-08T13:25:19.272Z,3.30
2017-09-08T13:27:48.714Z,3.10
2017-09-08T13:30:18.196Z,2.73
2017-09-08T13:32:47.635Z,3.50
2017-09-08T13:35:17.155Z,3.60
2017-09-08T13:37:46.666Z,3.43
2017-09-08T13:40:16.140Z,3.70
2017-09-08T13:42:45.569Z,3.07
2017-09-08T13:45:15.060Z,2.97
2017-09-08T13:47:44.513Z,3.80
2017-09-08T13:50:14.009Z,3.67
2017-09-08T13:52:43.441Z,3.50
2017-09-08T13:55:12.914Z,3.00
2017-09-08T13:57:42.374Z,3.27
2017-09-08T14:00:11.863Z,2.90
2017-09-08T14:02:41.285Z,2.80
2017-09-08T14:05:10.636Z,3.00
2017-09-08T14:07:39.950Z,2.83
2017-09-08T14:10:09.433Z,2.80
2017-09-08T14:12:38.708Z,2.63
2017-09-08T14:15:08.186Z,2.80
2017-09-08T14:17:37.619Z,3.27
2017-09-08T14:20:07.109Z,3.67
2017-09-08T14:22:36.597Z,3.37
2017-09-08T14:25:06.101Z,3.63
2017-09-08T14:27:35.625Z,2.80
2017-09-08T14:30:05.082Z,3.43
2017-09-08T14:32:34.523Z,4.27
2017-09-08T14:35:04.000Z,3.80
2017-09-08T14:37:33.445Z,3.87
2017-09-08T14:40:02.944Z,3.20
2017-09-08T14:42:32.176Z,3.27
2017-09-08T14:45:01.666Z,2.80
2017-09-08T14:47:31.094Z,2.53
2017-09-08T14:50:00.545Z,2.80
2017-09-08T14:52:29.996Z,3.50
2017-09-08T14:54:59.457Z,3.43
2017-09-08T14:57:29.165Z,3.23
2017-09-08T14:59:58.604Z,3.00
2017-09-08T15:02:28.060Z,3.60
2017-09-08T15:04:57.516Z,2.60
2017-09-08T15:07:27.018Z,3.00
2017-09-08T15:09:56.467Z,3.53
2017-09-08T15:12:25.926Z,3.00
2017-09-08T15:14:55.377Z,2.60
2017-09-08T15:17:24.945Z,2.43
2017-09-08T15:19:54.436Z,2.27
2017-09-08T15:22:23.883Z,2.60
2017-09-08T15:24:53.332Z,2.47
2017-09-08T15:27:22.605Z,2.30
2017-09-08T15:29:52.056Z,2.47
2017-09-08T15:32:21.691Z,2.13
2017-09-08T15:34:51.125Z,2.00
2017-09-08T15:37:20.585Z,2.23
2017-09-08T15:39:50.010Z,2.03
2017-09-08T15:42:19.475Z,2.43
2017-09-08T15:44:48.711Z,2.03
2017-09-08T15:47:18.196Z,2.60
2017-09-08T15:49:47.662Z,2.37
2017-09-08T15:52:16.950Z,2.47
2017-09-08T15:54:46.391Z,1.60
2017-09-08T15:57:15.932Z,2.50
2017-09-08T15:59:45.354Z,1.90
2017-09-08T16:02:14.794Z,2.40
2017-09-08T16:04:44.158Z,2.87
2017-09-08T16:07:13.608Z,2.57
2017-09-08T16:09:43.062Z,2.60
2017-09-08T16:12:12.497Z,2.27
2017-09-08T16:14:41.759Z,2.40
2017-09-08T16:17:11.253Z,2.60
2017-09-08T16:19:40.697Z,2.70
2017-09-08T16:22:10.254Z,2.80
2017-09-08T16:24:39.700Z,2.50
2017-09-08T16:27:09.172Z,2.77
2017-09-08T16:29:38.629Z,1.87
2017-09-08T16:32:08.075Z,2.67
2017-09-08T16:34:37.517Z,1.90
2017-09-08T16:37:06.970Z,2.77
2017-09-08T16:39:36.413Z,3.03
2017-09-08T16:42:05.889Z,2.97
2017-09-08T16:44:35.325Z,3.30
2017-09-08T16:47:04.769Z,3.27
2017-09-08T16:49:34.216Z,3.20
2017-09-08T16:52:03.671Z,2.70
2017-09-08T16:54:33.107Z,3.27
2017-09-08T16:57:02.563Z,3.40
2017-09-08T16:59:32.051Z,4.50
2017-09-08T17:02:01.507Z,3.27
2017-09-08T17:04:30.945Z,3.00
2017-09-08T17:07:00.445Z,3.87
2017-09-08T17:09:29.897Z,3.23
2017-09-08T17:11:59.338Z,2.83
2017-09-08T17:14:28.848Z,4.33
2017-09-08T17:16:58.293Z,2.70
2017-09-08T17:19:27.776Z,2.83
2017-09-08T17:21:57.245Z,3.00
2017-09-08T17:24:26.484Z,2.90
2017-09-08T17:26:55.749Z,3.30
2017-09-08T17:29:25.212Z,4.90
2017-09-08T17:31:54.669Z,4.10
2017-09-08T17:34:24.105Z,4.17
2017-09-08T17:36:53.769Z,4.37
2017-09-08T17:39:23.197Z,3.70
2017-09-08T17:41:52.653Z,4.33
2017-09-08T17:44:22.084Z,5.00
2017-09-08T17:46:51.531Z,3.40
2017-09-08T17:49:20.992Z,4.07
2017-09-08T17:51:50.452Z,8.03
2017-09-08T17:54:19.889Z,4.47
2017-09-08T17:56:49.328Z,3.67
2017-09-08T17:59:18.772Z,3.67
2017-09-08T18:01:48.237Z,3.57
2017-09-08T18:04:17.706Z,4.10
2017-09-08T18:06:47.145Z,3.67
2017-09-08T18:09:16.594Z,6.30
2017-09-08T18:11:46.054Z,4.70
2017-09-08T18:14:15.298Z,4.27
2017-09-08T18:16:44.863Z,3.57
2017-09-08T18:19:14.298Z,3.90
2017-09-08T18:21:43.741Z,4.00
2017-09-08T18:24:12.996Z,4.43
2017-09-08T18:26:42.440Z,4.60
2017-09-08T18:29:11.882Z,9.97
2017-09-08T18:31:41.339Z,6.90
2017-09-08T18:34:10.801Z,5.97
2017-09-08T18:36:40.082Z,6.00
2017-09-08T18:39:09.525Z,5.37
2017-09-08T18:41:38.965Z,4.40
2017-09-08T18:44:08.404Z,9.10
2017-09-08T18:46:37.856Z,8.23
2017-09-08T18:49:07.310Z,5.43
2017-09-08T18:51:36.757Z,5.80
2017-09-08T18:54:06.241Z,12.50
2017-09-08T18:56:35.693Z,7.80
2017-09-08T18:59:05.141Z,4.87
2017-09-08T19:01:34.593Z,4.00
2017-09-08T19:04:04.029Z,4.97
2017-09-08T19:06:33.512Z,7.70
2017-09-08T19:09:02.835Z,5.80
2017-09-08T19:11:32.301Z,6.00
2017-09-08T19:14:01.769Z,5.33
2017-09-08T19:16:31.196Z,4.07
2017-09-08T19:19:00.687Z,5.17
2017-09-08T19:21:30.527Z,6.50
2017-09-08T19:23:59.978Z,4.97
2017-09-08T19:26:29.712Z,4.25
2017-09-08T19:28:59.160Z,4.70
2017-09-08T19:31:28.886Z,5.70
2017-09-08T19:33:58.329Z,6.63
2017-09-08T19:36:28.073Z,5.03
2017-09-08T19:38:57.812Z,6.00
2017-09-08T19:41:27.561Z,5.10
2017-09-08T19:43:57.217Z,5.28
2017-09-08T19:46:26.968Z,5.32
2017-09-08T19:48:56.681Z,5.30
2017-09-08T19:51:26.090Z,5.65
2017-09-08T19:53:55.836Z,8.73
2017-09-08T19:56:25.566Z,5.43
2017-09-08T19:58:55.312Z,5.03
2017-09-08T20:01:25.037Z,5.10
2017-09-08T20:03:54.790Z,5.28
2017-09-08T20:06:24.514Z,4.95
2017-09-08T20:08:54.255Z,4.47
2017-09-08T20:11:23.981Z,5.53
2017-09-08T20:13:53.732Z,5.10
2017-09-08T20:16:23.473Z,7.18
2017-09-08T20:18:53.184Z,6.07
2017-09-08T20:21:22.914Z,5.30
2017-09-08T20:23:52.805Z,6.57
2017-09-08T20:26:22.544Z,6.68
2017-09-08T20:28:52.312Z,4.62
2017-09-08T20:31:22.043Z,4.95
2017-09-08T20:33:51.770Z,5.80
2017-09-08T20:36:21.503Z,5.20
2017-09-08T20:38:51.237Z,4.97
2017-09-08T20:41:20.967Z,5.47
2017-09-08T20:43:50.733Z,5.32
2017-09-08T20:46:20.473Z,5.82
2017-09-08T20:48:50.217Z,4.57
2017-09-08T20:51:20.030Z,5.00
2017-09-08T20:53:49.783Z,4.72
2017-09-08T20:56:19.502Z,5.30
2017-09-08T20:58:49.269Z,4.93
2017-09-08T21:01:18.990Z,5.70
2017-09-08T21:03:48.716Z,5.37
2017-09-08T21:06:18.462Z,5.07
2017-09-08T21:08:47.880Z,5.00
2017-09-08T21:11:17.638Z,5.55
2017-09-08T21:13:47.399Z,5.68
2017-09-08T21:16:17.236Z,8.15
2017-09-08T21:18:47.005Z,7.03
2017-09-08T21:21:16.745Z,5.80
2017-09-08T21:23:46.476Z,5.72
2017-09-08T21:26:16.227Z,8.40
2017-09-08T21:28:45.971Z,5.85
2017-09-08T21:31:15.729Z,5.07
2017-09-08T21:33:45.590Z,5.50
2017-09-08T21:36:15.437Z,5.37
2017-09-08T21:38:45.146Z,4.75
2017-09-08T21:41:14.881Z,6.47
2017-09-08T21:43:44.627Z,5.93
2017-09-08T21:46:14.366Z,6.20
2017-09-08T21:48:44.092Z,5.10
2017-09-08T21:51:13.984Z,5.72
2017-09-08T21:53:43.717Z,6.00
2017-09-08T21:56:13.505Z,5.45
2017-09-08T21:58:43.224Z,5.65
2017-09-08T22:01:12.965Z,4.80
2017-09-08T22:03:42.538Z,4.87
2017-09-08T22:06:12.281Z,5.22
2017-09-08T22:08:42.025Z,5.18
2017-09-08T22:11:11.777Z,4.90
2017-09-08T22:13:41.474Z,5.95
2017-09-08T22:16:11.182Z,4.95
2017-09-08T22:18:40.926Z,9.18
2017-09-08T22:21:10.641Z,6.70
2017-09-08T22:23:40.404Z,7.03
2017-09-08T22:26:11.691Z,5.87
2017-09-08T22:28:41.417Z,6.40
2017-09-08T22:31:11.310Z,6.00
2017-09-08T22:33:41.058Z,6.12
2017-09-08T22:36:10.861Z,5.30
2017-09-08T22:38:40.581Z,5.28
2017-09-08T22:41:10.333Z,5.45
2017-09-08T22:43:40.054Z,4.97
2017-09-08T22:46:09.816Z,6.10
2017-09-08T22:48:39.576Z,6.18
2017-09-08T22:51:09.297Z,8.40
2017-09-08T22:53:39.040Z,6.28
2017-09-08T22:56:08.580Z,6.30
2017-09-08T22:58:38.319Z,6.22
2017-09-08T23:01:08.048Z,6.47
2017-09-08T23:03:37.630Z,5.65
2017-09-08T23:06:07.273Z,5.35
2017-09-08T23:08:37.017Z,6.70
2017-09-08T23:11:06.550Z,6.20
2017-09-08T23:13:36.371Z,6.40
2017-09-08T23:16:06.088Z,5.95
2017-09-08T23:18:35.845Z,5.32
2017-09-08T23:21:05.578Z,6.10
2017-09-08T23:23:35.313Z,5.05
2017-09-08T23:26:05.064Z,5.78
2017-09-08T23:28:34.812Z,6.03
2017-09-08T23:31:04.561Z,6.25
2017-09-08T23:33:34.301Z,5.50
2017-09-08T23:36:04.021Z,5.78
2017-09-08T23:38:33.728Z,5.55
2017-09-08T23:41:03.469Z,5.00
2017-09-08T23:43:33.714Z,6.07
2017-09-08T23:46:03.453Z,5.03
2017-09-08T23:48:32.927Z,6.55
2017-09-08T23:51:02.685Z,6.40
2017-09-08T23:53:32.449Z,6.40
2017-09-08T23:56:02.171Z,7.37
2017-09-08T23:58:31.903Z,6.15
